createdAt,value
2023-04-06T00:02:02.937Z,6.92
2023-04-06T00:04:31.980Z,6.91
2023-04-06T00:06:59.925Z,6.87
2023-04-06T00:09:27.954Z,6.90
2023-04-06T00:11:55.975Z,6.87
2023-04-06T00:14:23.631Z,6.87
2023-04-06T00:16:51.650Z,6.83
2023-04-06T00:19:19.374Z,6.82
2023-04-06T00:21:48.443Z,6.79
2023-04-06T00:24:16.256Z,6.75
2023-04-06T00:26:43.974Z,6.72
2023-04-06T00:29:11.686Z,6.67
2023-04-06T00:31:39.424Z,6.59
2023-04-06T00:34:07.758Z,6.59
2023-04-06T00:36:35.459Z,6.59
2023-04-06T00:39:04.633Z,6.58
2023-04-06T00:41:32.437Z,6.59
2023-04-06T00:44:00.223Z,6.60
2023-04-06T00:46:28.137Z,6.57
2023-04-06T00:48:56.065Z,6.58
2023-04-06T00:51:24.741Z,6.55
2023-04-06T00:53:52.718Z,6.53
2023-04-06T00:56:22.195Z,6.51
2023-04-06T00:58:49.980Z,6.47
2023-04-06T01:01:17.823Z,6.44
2023-04-06T01:03:48.557Z,6.43
2023-04-06T01:06:16.255Z,6.39
2023-04-06T01:08:43.983Z,6.39
2023-04-06T01:11:11.688Z,6.38
2023-04-06T01:13:40.745Z,6.37
2023-04-06T01:16:09.038Z,6.38
2023-04-06T01:18:37.090Z,6.35
2023-04-06T01:21:04.839Z,6.30
2023-04-06T01:23:33.921Z,6.25
2023-04-06T01:26:01.530Z,6.21
2023-04-06T01:28:29.217Z,6.17
2023-04-06T01:30:56.939Z,6.15
2023-04-06T01:33:24.667Z,6.16
2023-04-06T01:35:52.350Z,6.12
2023-04-06T01:38:20.153Z,6.09
2023-04-06T01:40:49.270Z,6.06
2023-04-06T01:43:16.964Z,6.05
2023-04-06T01:45:44.719Z,6.01
2023-04-06T01:48:12.478Z,5.96
2023-04-06T01:50:40.235Z,5.92
2023-04-06T01:53:07.961Z,5.90
2023-04-06T01:55:35.632Z,5.89
2023-04-06T01:58:04.797Z,5.84
2023-04-06T02:00:32.594Z,5.87
2023-04-06T02:03:00.462Z,5.86
2023-04-06T02:05:28.397Z,5.88
2023-04-06T02:07:56.042Z,5.89
2023-04-06T02:10:23.960Z,5.88
2023-04-06T02:12:51.752Z,5.87
2023-04-06T02:15:20.838Z,5.85
2023-04-06T02:17:48.705Z,5.81
2023-04-06T02:20:16.498Z,5.83
2023-04-06T02:22:44.202Z,5.81
2023-04-06T02:25:12.820Z,5.77
2023-04-06T02:27:40.517Z,5.72
2023-04-06T02:30:09.404Z,5.66
2023-04-06T02:32:38.535Z,5.66
2023-04-06T02:35:07.069Z,5.64
2023-04-06T02:37:34.776Z,5.64
2023-04-06T02:40:02.404Z,5.60
2023-04-06T02:42:30.453Z,5.63
2023-04-06T02:44:58.128Z,5.62
2023-04-06T02:47:25.935Z,5.62
2023-04-06T02:49:54.991Z,5.62
2023-04-06T02:52:22.680Z,5.60
2023-04-06T02:54:51.969Z,5.55
2023-04-06T02:57:19.638Z,5.53
2023-04-06T02:59:47.452Z,5.50
2023-04-06T03:02:15.239Z,5.50
2023-04-06T03:04:44.212Z,5.51
2023-04-06T03:07:13.315Z,5.49
2023-04-06T03:09:41.133Z,5.51
2023-04-06T03:12:10.066Z,5.49
2023-04-06T03:14:38.006Z,5.44
2023-04-06T03:17:05.872Z,5.40
2023-04-06T03:19:33.726Z,5.37
2023-04-06T03:22:01.450Z,5.35
2023-04-06T03:24:30.586Z,5.34
2023-04-06T03:26:58.485Z,5.35
2023-04-06T03:29:26.387Z,5.37
2023-04-06T03:31:54.074Z,5.36
2023-04-06T03:34:21.991Z,5.31
2023-04-06T03:36:56.618Z,5.35
2023-04-06T03:39:36.198Z,5.33
2023-04-06T03:42:03.906Z,5.29
2023-04-06T03:44:31.556Z,5.25
2023-04-06T03:46:59.292Z,5.24
2023-04-06T03:49:27.038Z,5.23
2023-04-06T03:51:54.928Z,5.22
2023-04-06T03:54:22.571Z,5.22
2023-04-06T03:56:51.640Z,5.20
2023-04-06T03:59:19.403Z,5.19
2023-04-06T04:01:47.170Z,5.19
2023-04-06T04:04:14.949Z,5.17
2023-04-06T04:06:42.619Z,5.13
2023-04-06T04:09:10.546Z,5.13
2023-04-06T04:11:38.545Z,5.08
2023-04-06T04:14:07.623Z,5.07
2023-04-06T04:16:35.593Z,5.10
2023-04-06T04:19:03.332Z,5.08
2023-04-06T04:21:32.298Z,5.06
2023-04-06T04:24:00.046Z,5.04
2023-04-06T04:26:27.786Z,5.01
2023-04-06T04:28:55.478Z,4.95
2023-04-06T04:31:24.704Z,4.94
2023-04-06T04:33:52.483Z,4.91
2023-04-06T04:36:20.222Z,4.88
2023-04-06T04:38:47.937Z,4.86
2023-04-06T04:41:15.558Z,4.77
2023-04-06T04:43:43.251Z,4.82
2023-04-06T04:46:11.015Z,4.79
2023-04-06T04:48:40.859Z,4.80
2023-04-06T04:51:08.564Z,4.81
2023-04-06T04:53:36.267Z,4.80
2023-04-06T04:56:04.006Z,4.80
2023-04-06T04:58:31.727Z,4.79
2023-04-06T05:00:59.396Z,4.78
2023-04-06T05:03:28.227Z,4.79
2023-04-06T05:05:57.369Z,4.79
2023-04-06T05:08:25.000Z,4.81
2023-04-06T05:10:52.750Z,4.81
2023-04-06T05:13:20.595Z,4.81
2023-04-06T05:15:48.346Z,4.80
2023-04-06T05:18:16.177Z,4.80
2023-04-06T05:20:44.706Z,4.82
2023-04-06T05:23:13.825Z,4.82
2023-04-06T05:25:41.720Z,4.83
2023-04-06T05:28:09.453Z,4.86
2023-04-06T05:30:37.476Z,4.88
2023-04-06T05:33:05.297Z,4.91
2023-04-06T05:35:32.989Z,4.90
2023-04-06T05:38:01.254Z,4.94
2023-04-06T05:40:30.600Z,4.95
2023-04-06T05:42:58.539Z,4.94
2023-04-06T05:45:26.189Z,4.97
2023-04-06T05:47:53.943Z,4.99
2023-04-06T05:50:21.941Z,4.99
2023-04-06T05:52:49.719Z,5.03
2023-04-06T05:55:17.513Z,5.06
2023-04-06T05:57:46.570Z,5.09
2023-04-06T06:00:15.535Z,5.11
2023-04-06T06:02:43.355Z,5.13
2023-04-06T06:05:11.612Z,5.16
2023-04-06T06:07:39.410Z,5.21
2023-04-06T06:10:08.096Z,5.25
2023-04-06T06:12:35.718Z,5.25
2023-04-06T06:15:05.295Z,5.31
2023-04-06T06:17:33.075Z,5.35
2023-04-06T06:20:00.910Z,5.38
2023-04-06T06:22:28.526Z,5.38
2023-04-06T06:24:56.418Z,5.39
2023-04-06T06:27:24.150Z,5.43
2023-04-06T06:29:51.903Z,5.44
2023-04-06T06:32:21.047Z,5.47
2023-04-06T06:34:48.733Z,5.52
2023-04-06T06:37:16.350Z,5.59
2023-04-06T06:39:44.116Z,5.63
2023-04-06T06:42:14.128Z,5.62
2023-04-06T06:44:42.455Z,5.71
2023-04-06T06:47:10.275Z,5.78
2023-04-06T06:49:39.325Z,5.82
2023-04-06T06:52:06.937Z,5.89
2023-04-06T06:54:34.645Z,5.92
2023-04-06T06:57:02.332Z,5.96
2023-04-06T06:59:30.024Z,6.01
2023-04-06T07:01:57.684Z,6.05
2023-04-06T07:04:25.350Z,6.12
2023-04-06T07:06:54.518Z,6.17
2023-04-06T07:09:22.292Z,6.23
2023-04-06T07:11:50.224Z,6.33
2023-04-06T07:14:18.001Z,6.39
2023-04-06T07:16:47.875Z,6.46
2023-04-06T07:19:15.542Z,6.56
2023-04-06T07:21:43.189Z,6.63
2023-04-06T07:24:12.258Z,6.75
2023-04-06T07:26:39.978Z,6.82
2023-04-06T07:29:07.900Z,6.90
2023-04-06T07:31:36.541Z,6.97
2023-04-06T07:34:04.279Z,7.09
2023-04-06T07:36:32.120Z,7.16
2023-04-06T07:38:59.723Z,7.21
2023-04-06T07:41:28.846Z,7.29
2023-04-06T07:43:56.571Z,7.30
2023-04-06T07:46:24.419Z,7.39
2023-04-06T07:48:52.402Z,7.50
2023-04-06T07:51:20.185Z,7.61
2023-04-06T07:53:47.949Z,7.68
2023-04-06T07:56:16.365Z,7.76
2023-04-06T07:58:45.875Z,7.90
2023-04-06T08:01:13.574Z,8.02
2023-04-06T08:03:41.761Z,8.13
2023-04-06T08:06:09.498Z,8.17
2023-04-06T08:08:37.276Z,8.22
2023-04-06T08:11:04.957Z,8.28
2023-04-06T08:13:32.604Z,8.38
2023-04-06T08:16:02.141Z,8.47
2023-04-06T08:18:30.877Z,8.55
2023-04-06T08:20:58.921Z,8.75
2023-04-06T08:23:26.615Z,8.87
2023-04-06T08:25:55.168Z,9.03
2023-04-06T08:28:23.039Z,9.16
2023-04-06T08:30:50.845Z,9.31
2023-04-06T08:33:19.877Z,9.42
2023-04-06T08:35:47.554Z,9.50
2023-04-06T08:38:15.361Z,9.52
2023-04-06T08:40:45.206Z,9.52
2023-04-06T08:43:15.928Z,9.54
2023-04-06T08:45:44.816Z,9.57
2023-04-06T08:49:41.598Z,9.63
2023-04-06T08:52:10.222Z,9.66
2023-04-06T08:54:37.852Z,9.79
2023-04-06T08:57:05.876Z,9.88
2023-04-06T08:59:34.015Z,9.90
2023-04-06T09:02:05.952Z,9.94
2023-04-06T09:04:34.232Z,10.00
2023-04-06T09:07:03.566Z,9.98
2023-04-06T09:09:31.334Z,9.98
2023-04-06T09:12:04.472Z,9.98
2023-04-06T09:14:36.813Z,10.02
2023-04-06T09:17:04.542Z,10.06
2023-04-06T09:19:32.218Z,10.15
2023-04-06T09:22:08.485Z,10.23
2023-04-06T09:24:43.923Z,10.28
2023-04-06T09:27:11.647Z,10.33
2023-04-06T09:29:39.356Z,10.38
2023-04-06T09:32:08.289Z,10.40
2023-04-06T09:34:36.253Z,10.46
2023-04-06T09:37:16.114Z,10.47
2023-04-06T09:39:44.130Z,10.62
2023-04-06T09:42:12.153Z,10.70
2023-04-06T09:44:39.859Z,10.76
2023-04-06T09:47:09.538Z,10.81
2023-04-06T09:49:37.389Z,10.88
2023-04-06T09:52:06.327Z,10.95
2023-04-06T09:54:37.129Z,11.01
2023-04-06T09:57:12.606Z,11.08
2023-04-06T09:59:46.729Z,11.17
2023-04-06T10:02:20.641Z,11.08
2023-04-06T10:04:52.397Z,11.28
2023-04-06T10:07:20.712Z,11.35
2023-04-06T10:09:50.010Z,11.45
2023-04-06T10:12:18.383Z,11.56
2023-04-06T10:14:46.176Z,11.68
2023-04-06T10:17:13.770Z,11.86
2023-04-06T10:19:46.896Z,11.97
2023-04-06T10:22:17.830Z,12.05
2023-04-06T10:24:45.614Z,12.13
2023-04-06T10:27:14.751Z,12.19
2023-04-06T10:29:47.539Z,12.28
2023-04-06T10:32:15.333Z,12.35
2023-04-06T10:34:43.008Z,12.42
2023-04-06T10:37:15.526Z,12.49
2023-04-06T10:39:50.140Z,12.52
2023-04-06T10:42:19.259Z,12.59
2023-04-06T10:44:47.460Z,12.76
2023-04-06T10:47:19.420Z,12.93
2023-04-06T10:49:47.080Z,13.01
2023-04-06T10:52:14.876Z,13.15
2023-04-06T10:54:44.946Z,13.28
2023-04-06T10:57:12.665Z,13.33
2023-04-06T10:59:46.246Z,13.39
2023-04-06T11:02:22.751Z,13.39
2023-04-06T11:04:58.200Z,13.38
2023-04-06T11:07:26.712Z,13.40
2023-04-06T11:10:12.585Z,13.39
2023-04-06T11:12:42.276Z,13.42
2023-04-06T11:15:12.320Z,13.45
2023-04-06T11:17:40.154Z,13.50
2023-04-06T11:20:12.285Z,13.57
2023-04-06T11:22:50.718Z,13.65
2023-04-06T11:25:18.591Z,13.72
2023-04-06T11:27:47.155Z,13.70
2023-04-06T11:30:16.706Z,13.66
2023-04-06T11:32:46.079Z,13.63
2023-04-06T11:35:16.408Z,13.62
2023-04-06T11:37:45.294Z,13.60
2023-04-06T11:40:13.127Z,13.58
2023-04-06T11:42:40.963Z,13.67
2023-04-06T11:45:10.112Z,13.71
2023-04-06T11:47:39.514Z,13.75
2023-04-06T11:50:08.453Z,13.79
2023-04-06T11:52:36.103Z,13.81
2023-04-06T11:55:13.489Z,13.82
2023-04-06T11:57:42.279Z,13.81
2023-04-06T12:00:11.431Z,13.89
2023-04-06T12:02:40.930Z,13.88
2023-04-06T12:05:09.530Z,13.91
2023-04-06T12:07:37.355Z,13.90
2023-04-06T12:10:05.991Z,13.86
2023-04-06T12:12:33.785Z,13.78
2023-04-06T12:15:01.936Z,13.66
2023-04-06T12:17:29.632Z,13.61
2023-04-06T12:20:05.390Z,13.57
2023-04-06T12:22:33.662Z,13.53
2023-04-06T12:25:01.324Z,13.50
2023-04-06T12:27:28.999Z,13.45
2023-04-06T12:29:56.639Z,13.42
2023-04-06T12:32:24.357Z,13.39
2023-04-06T12:34:54.037Z,13.40
2023-04-06T12:37:23.160Z,13.42
2023-04-06T12:39:51.124Z,13.44
2023-04-06T12:42:18.739Z,13.42
2023-04-06T12:44:48.056Z,13.39
2023-04-06T12:47:15.854Z,13.31
2023-04-06T12:49:43.925Z,13.30
2023-04-06T12:52:12.788Z,13.26
2023-04-06T12:56:25.494Z,13.15
2023-04-06T12:58:54.007Z,13.12
2023-04-06T13:01:22.267Z,13.14
2023-04-06T13:03:50.009Z,13.11
2023-04-06T13:06:17.768Z,13.08
2023-04-06T13:08:45.462Z,12.98
2023-04-06T13:11:13.416Z,12.91
2023-04-06T13:13:42.523Z,12.87
2023-04-06T13:16:10.778Z,12.90
2023-04-06T13:18:39.824Z,12.97
2023-04-06T13:21:08.121Z,13.02
2023-04-06T13:23:36.267Z,13.04
2023-04-06T13:26:05.412Z,13.09
2023-04-06T13:28:33.848Z,13.08
2023-04-06T13:31:04.186Z,13.11
2023-04-06T13:33:32.485Z,13.11
2023-04-06T13:36:00.780Z,13.10
2023-04-06T13:38:28.664Z,13.06
2023-04-06T13:40:56.971Z,12.96
2023-04-06T13:43:27.108Z,12.96
2023-04-06T13:45:56.464Z,12.91
2023-04-06T13:48:26.556Z,12.94
2023-04-06T13:50:54.412Z,12.96
2023-04-06T13:53:22.160Z,12.93
2023-04-06T13:55:55.413Z,12.83
2023-04-06T13:58:23.175Z,12.72
2023-04-06T14:00:50.920Z,12.65
2023-04-06T14:03:18.837Z,12.65
2023-04-06T14:05:48.157Z,12.57
2023-04-06T14:08:15.972Z,12.56
2023-04-06T14:10:43.849Z,12.50
2023-04-06T14:13:11.557Z,12.48
2023-04-06T14:15:39.673Z,12.51
2023-04-06T14:18:07.633Z,12.49
2023-04-06T14:20:35.365Z,12.44
2023-04-06T14:23:04.771Z,12.45
2023-04-06T14:25:33.547Z,12.39
2023-04-06T14:28:02.115Z,12.33
2023-04-06T14:30:29.919Z,12.23
2023-04-06T14:32:58.891Z,12.14
2023-04-06T14:35:29.089Z,12.09
2023-04-06T14:37:57.859Z,12.03
2023-04-06T14:40:27.054Z,12.00
2023-04-06T14:42:56.562Z,11.94
2023-04-06T14:45:24.254Z,11.88
2023-04-06T14:47:52.132Z,11.79
2023-04-06T14:50:20.018Z,11.72
2023-04-06T14:52:47.887Z,11.60
2023-04-06T14:55:16.939Z,11.49
2023-04-06T14:57:46.148Z,11.44
2023-04-06T15:00:15.054Z,11.41
2023-04-06T15:02:44.265Z,11.35
2023-04-06T15:05:12.260Z,11.32
2023-04-06T15:07:39.929Z,11.21
2023-04-06T15:10:10.845Z,11.13
2023-04-06T15:12:40.273Z,11.19
2023-04-06T15:15:10.681Z,11.17
2023-04-06T15:17:38.545Z,11.19
2023-04-06T15:20:07.609Z,11.19
2023-04-06T15:22:35.400Z,11.12
2023-04-06T15:25:03.075Z,11.04
2023-04-06T15:27:31.083Z,11.01
2023-04-06T15:29:59.428Z,10.96
2023-04-06T15:32:28.688Z,10.93
2023-04-06T15:34:58.248Z,10.96
2023-04-06T15:37:25.930Z,10.98
2023-04-06T15:39:53.603Z,10.95
2023-04-06T15:42:21.217Z,10.95
2023-04-06T15:44:48.923Z,10.88
2023-04-06T15:47:16.977Z,10.84
2023-04-06T15:49:46.121Z,10.76
2023-04-06T15:52:13.733Z,10.80
2023-04-06T15:54:42.028Z,10.78
2023-04-06T15:57:09.693Z,10.80
2023-04-06T15:59:37.465Z,10.80
2023-04-06T16:02:05.775Z,10.81
2023-04-06T16:04:33.884Z,10.85
2023-04-06T16:07:03.150Z,10.86
2023-04-06T16:09:30.915Z,10.90
2023-04-06T16:11:58.576Z,10.93
2023-04-06T16:14:26.221Z,10.92
2023-04-06T16:16:54.949Z,10.94
2023-04-06T16:19:22.632Z,10.91
2023-04-06T16:21:50.288Z,10.90
2023-04-06T16:24:19.351Z,10.93
2023-04-06T16:26:48.300Z,10.94
2023-04-06T16:29:17.251Z,10.95
2023-04-06T16:31:47.237Z,10.94
2023-04-06T16:34:15.547Z,10.97
2023-04-06T16:36:43.266Z,10.92
2023-04-06T16:39:11.409Z,10.92
2023-04-06T16:41:40.796Z,10.93
2023-04-06T16:44:09.144Z,10.95
2023-04-06T16:46:38.307Z,10.90
2023-04-06T16:49:06.865Z,10.94
2023-04-06T16:51:34.562Z,10.94
2023-04-06T16:54:02.914Z,10.88
2023-04-06T16:56:30.841Z,10.89
2023-04-06T16:58:59.998Z,10.89
2023-04-06T17:01:28.777Z,10.87
2023-04-06T17:03:57.347Z,10.84
2023-04-06T17:06:27.098Z,10.81
2023-04-06T17:08:54.920Z,10.73
2023-04-06T17:11:28.029Z,10.79
2023-04-06T17:14:01.825Z,10.80
2023-04-06T17:16:29.726Z,10.79
2023-04-06T17:18:57.787Z,10.82
2023-04-06T17:21:26.359Z,10.81
2023-04-06T17:23:54.141Z,10.78
2023-04-06T17:26:22.649Z,10.75
2023-04-06T17:28:50.336Z,10.72
2023-04-06T17:31:19.494Z,10.66
2023-04-06T17:33:47.564Z,10.65
2023-04-06T17:36:15.568Z,10.66
2023-04-06T17:38:45.718Z,10.61
2023-04-06T17:41:14.190Z,10.54
2023-04-06T17:43:42.122Z,10.46
2023-04-06T17:46:10.012Z,10.44
2023-04-06T17:48:39.150Z,10.38
2023-04-06T17:51:07.061Z,10.31
2023-04-06T17:53:36.619Z,10.25
2023-04-06T17:56:04.582Z,10.24
2023-04-06T17:58:32.329Z,10.19
2023-04-06T18:01:00.098Z,10.22
2023-04-06T18:03:28.214Z,10.22
2023-04-06T18:05:57.712Z,10.22
2023-04-06T18:08:25.444Z,10.17
2023-04-06T18:10:53.119Z,10.17
2023-04-06T18:13:21.251Z,10.15
2023-04-06T18:15:48.950Z,10.12
2023-04-06T18:18:17.063Z,10.07
2023-04-06T18:20:44.766Z,10.09
2023-04-06T18:23:14.038Z,10.06
2023-04-06T18:25:41.883Z,10.05
2023-04-06T18:28:10.686Z,10.05
2023-04-06T18:30:38.484Z,10.00
2023-04-06T18:33:07.576Z,9.92
2023-04-06T18:35:35.380Z,9.89
2023-04-06T18:38:03.039Z,9.90
2023-04-06T18:40:39.844Z,9.88
2023-04-06T18:43:09.200Z,9.85
2023-04-06T18:45:38.740Z,9.86
2023-04-06T18:48:07.342Z,9.84
2023-04-06T18:50:35.359Z,9.86
2023-04-06T18:53:03.274Z,9.87
2023-04-06T18:55:33.698Z,9.79
2023-04-06T18:58:02.918Z,9.76
2023-04-06T19:00:30.675Z,9.77
2023-04-06T19:02:58.549Z,9.77
2023-04-06T19:05:26.607Z,9.81
2023-04-06T19:07:54.340Z,9.69
2023-04-06T19:10:22.107Z,9.80
2023-04-06T19:12:49.791Z,9.74
2023-04-06T19:15:18.988Z,9.79
2023-04-06T19:17:47.830Z,9.80
2023-04-06T19:20:15.818Z,9.73
2023-04-06T19:22:44.733Z,9.73
2023-04-06T19:25:12.694Z,9.74
2023-04-06T19:27:40.447Z,9.74
2023-04-06T19:30:09.792Z,9.74
2023-04-06T19:32:39.722Z,9.71
2023-04-06T19:35:08.418Z,9.72
2023-04-06T19:37:36.663Z,9.70
2023-04-06T19:40:07.566Z,9.63
2023-04-06T19:42:35.251Z,9.61
2023-04-06T19:45:02.988Z,9.58
2023-04-06T19:47:30.816Z,9.53
2023-04-06T19:49:59.932Z,9.54
2023-04-06T19:52:28.943Z,9.55
2023-04-06T19:54:57.179Z,9.51
2023-04-06T19:57:25.831Z,9.46
2023-04-06T19:59:54.806Z,9.52
2023-04-06T20:02:22.977Z,9.54
2023-04-06T20:04:50.837Z,9.54
2023-04-06T20:07:19.942Z,9.48
2023-04-06T20:09:47.691Z,9.51
2023-04-06T20:12:15.495Z,9.48
2023-04-06T20:14:43.179Z,9.42
2023-04-06T20:17:10.919Z,9.53
2023-04-06T20:19:38.565Z,9.56
2023-04-06T20:22:06.283Z,9.58
2023-04-06T20:24:35.395Z,9.56
2023-04-06T20:27:03.157Z,9.52
2023-04-06T20:29:30.846Z,9.45
2023-04-06T20:31:59.305Z,9.50
2023-04-06T20:34:28.861Z,9.51
2023-04-06T20:36:56.715Z,9.54
2023-04-06T20:39:24.540Z,9.52
2023-04-06T20:41:54.016Z,9.51
2023-04-06T20:44:21.947Z,9.48
2023-04-06T20:46:50.037Z,9.49
2023-04-06T20:49:18.392Z,9.46
2023-04-06T20:51:46.289Z,9.46
2023-04-06T20:54:13.901Z,9.40
2023-04-06T20:56:41.603Z,9.39
2023-04-06T20:59:10.913Z,9.38
2023-04-06T21:01:38.666Z,9.42
2023-04-06T21:04:06.458Z,9.35
2023-04-06T21:06:34.291Z,9.33
2023-04-06T21:09:02.399Z,9.31
2023-04-06T21:11:30.164Z,9.28
2023-04-06T21:13:57.921Z,9.32
2023-04-06T21:16:28.002Z,9.34
2023-04-06T21:18:55.822Z,9.36
2023-04-06T21:21:23.456Z,9.36
2023-04-06T21:23:52.803Z,9.37
2023-04-06T21:26:20.584Z,9.40
2023-04-06T21:28:48.274Z,9.42
2023-04-06T21:31:16.788Z,9.35
2023-04-06T21:33:45.950Z,9.34
2023-04-06T21:36:13.737Z,9.33
2023-04-06T21:38:41.428Z,9.37
2023-04-06T21:41:09.087Z,9.35
2023-04-06T21:43:36.718Z,9.39
2023-04-06T21:46:04.888Z,9.42
2023-04-06T21:48:32.761Z,9.44
2023-04-06T21:51:01.824Z,9.45
2023-04-06T21:53:29.488Z,9.41
2023-04-06T21:55:57.400Z,9.42
2023-04-06T21:58:25.107Z,9.42
2023-04-06T22:00:52.776Z,9.41
2023-04-06T22:03:20.671Z,9.40
2023-04-06T22:05:48.507Z,9.45
2023-04-06T22:08:25.507Z,9.50
2023-04-06T22:11:01.316Z,9.53
2023-04-06T22:13:29.457Z,9.52
2023-04-06T22:15:57.158Z,9.47
2023-04-06T22:18:24.824Z,9.51
2023-04-06T22:20:52.467Z,9.50
2023-04-06T22:23:21.860Z,9.48
2023-04-06T22:25:49.917Z,9.47
2023-04-06T22:28:17.656Z,9.48
2023-04-06T22:30:45.404Z,9.51
2023-04-06T22:33:13.041Z,9.50
2023-04-06T22:35:40.972Z,9.45
2023-04-06T22:38:08.687Z,9.48
2023-04-06T22:40:37.798Z,9.43
2023-04-06T22:43:05.441Z,9.37
2023-04-06T22:45:33.079Z,9.37
2023-04-06T22:48:00.941Z,9.40
2023-04-06T22:50:28.630Z,9.45
2023-04-06T22:52:56.542Z,9.44
2023-04-06T22:55:24.300Z,9.45
2023-04-06T22:57:53.553Z,9.48
2023-04-06T23:00:21.479Z,9.48
2023-04-06T23:02:49.222Z,9.47
2023-04-06T23:05:17.117Z,9.43
2023-04-06T23:07:44.760Z,9.47
2023-04-06T23:10:12.441Z,9.50
2023-04-06T23:12:40.059Z,9.53
2023-04-06T23:15:10.505Z,9.55
2023-04-06T23:17:38.219Z,9.50
2023-04-06T23:20:07.160Z,9.50
2023-04-06T23:22:34.808Z,9.44
2023-04-06T23:25:02.488Z,9.50
2023-04-06T23:27:30.119Z,9.51
2023-04-06T23:29:57.785Z,9.55
2023-04-06T23:32:26.934Z,9.58
2023-04-06T23:34:54.598Z,9.60
2023-04-06T23:37:22.200Z,9.59
2023-04-06T23:39:49.901Z,9.60
2023-04-06T23:42:17.869Z,9.60
2023-04-06T23:44:45.636Z,9.58
2023-04-06T23:47:13.330Z,9.53
2023-04-06T23:49:42.350Z,9.45
2023-04-06T23:52:10.058Z,9.45
2023-04-06T23:54:37.778Z,9.47
2023-04-06T23:57:05.445Z,9.53
2023-04-06T23:59:33.086Z,9.58
